Dubai Fortune — H9SA — position and weather

sailwx.info

Track history (hours):
 
Tides and Currents Weather Stations Pressure Air Temp Water Temp Dewpoint Dewpoint Depression Visibility Wind Speed Wind Dir Waves Ship Positions

Dubai Fortune

Last reported at 2017-Dec-01 03:05 UTC. Time now 2017-Dec-12 23:53 UTC.
Position N 30°29' E 121°59'.
Warning: this ship's position is 11 days out of date.

Length 188 m; draft 5.8 m.

Type: Cargo ship. MMSI: 353316000.

Date/timePositionNaut miles runAvg speedWind from/ knotsBaromVisibWave heightAir tempDewpointWater temp
2017-Dec-01 03:05N 30°29' E 121°59'612.5
2017-Dec-01 02:36N 30°32' E 122°05'212.3
2017-Dec-01 02:26N 30°33' E 122°08'711.8
2017-Dec-01 01:49N 30°38' E 122°13'412.6
2017-Dec-01 01:30N 30°42' E 122°14'612.4
2017-Dec-01 01:00N 30°48' E 122°17'611.6
2017-Dec-01 00:30N 30°54' E 122°16'611.7
2017-Dec-01 00:00N 30°59' E 122°13'510.2
2017-Nov-30 23:30N 31°03' E 122°09'5 9.2
2017-Nov-30 23:00N 31°04' E 122°04'4 7.3
2017-Nov-30 22:30N 31°05' E 122°00'3 6.7
2017-Nov-30 22:00N 31°07' E 121°57'611.4
2017-Nov-30 21:29N 31°10' E 121°51'714.6
2017-Nov-30 20:59N 31°16' E 121°45'712.5
2017-Nov-30 20:25N 31°21' E 121°39'512.0
2017-Nov-30 20:00N 31°23' E 121°35'5 9.8
2017-Nov-30 19:30N 31°26' E 121°30'4 7.5
2017-Nov-30 19:00N 31°29' E 121°27'611.4
2017-Nov-30 18:30N 31°32' E 121°21'612.4
2017-Nov-30 18:00N 31°37' E 121°16'713.4
2017-Nov-30 17:30N 31°41' E 121°10'611.0
2017-Nov-30 17:00N 31°45' E 121°05'612.2
2017-Nov-30 16:30N 31°47' E 120°59'510.5
2017-Nov-30 16:00N 31°50' E 120°54'19 9.8
2017-Nov-30 14:04N 32°00' E 120°35'113.6
2017-Nov-30 13:59N 32°01' E 120°34'613.3
2017-Nov-30 13:31N 32°02' E 120°26'  
2017-Nov-25 04:54N 32°01' E 120°24'5 8.4
2017-Nov-25 04:18N 32°02' E 120°30'3 9.3
2017-Nov-25 04:00N 32°01' E 120°33'19 7.7
2017-Nov-25 01:33N 31°54' E 120°53'1 9.5
2017-Nov-25 01:29N 31°53' E 120°53'5 9.6
2017-Nov-25 01:00N 31°49' E 120°55'4 8.5
2017-Nov-25 00:30N 31°47' E 120°60'4 8.1
2017-Nov-25 00:00N 31°46' E 121°04'4 8.7
2017-Nov-24 23:30N 31°43' E 121°08'4 8.9
2017-Nov-24 23:00N 31°40' E 121°12'5 9.2
2017-Nov-24 22:30N 31°37' E 121°16'3 6.7
2017-Nov-24 22:00N 31°35' E 121°20'0 0.2
2017-Nov-24 21:30N 31°35' E 121°20'0 0.0
2017-Nov-24 21:00N 31°35' E 121°20'0 0.0
2017-Nov-24 20:30N 31°35' E 121°20'0 0.0
2017-Nov-24 20:00N 31°35' E 121°20'0 0.0
2017-Nov-24 19:27N 31°35' E 121°20'0 0.0
2017-Nov-24 19:00N 31°35' E 121°20'0 0.3
2017-Nov-24 18:24N 31°35' E 121°20'0 0.3
2017-Nov-24 18:00N 31°35' E 121°20'0 0.1
2017-Nov-24 17:30N 31°35' E 121°20'0 0.0
2017-Nov-24 17:00N 31°35' E 121°20'0 0.0
2017-Nov-24 16:30N 31°35' E 121°20'0 0.0
2017-Nov-24 16:00N 31°35' E 121°20'0 0.0
2017-Nov-24 15:27N 31°35' E 121°20'0 0.0
2017-Nov-24 15:00N 31°35' E 121°20'0 0.0
2017-Nov-24 14:30N 31°35' E 121°20'0 0.0
2017-Nov-24 14:00N 31°35' E 121°20'0 0.0
2017-Nov-24 13:27N 31°35' E 121°20'0 0.0
2017-Nov-24 12:54N 31°35' E 121°20'0 0.0
2017-Nov-24 12:27N 31°35' E 121°20'0 0.0
2017-Nov-24 12:00N 31°35' E 121°20'0 0.1
2017-Nov-24 11:30N 31°35' E 121°20'1 2.4
2017-Nov-24 11:00N 31°34' E 121°19'4 8.4
2017-Nov-24 10:30N 31°31' E 121°23'4 8.9
2017-Nov-24 10:00N 31°28' E 121°27'4 8.4
2017-Nov-24 09:30N 31°25' E 121°31'4 8.5
2017-Nov-24 09:00N 31°23' E 121°35'4 8.2
2017-Nov-24 08:30N 31°21' E 121°39'5 9.1
2017-Nov-24 08:00N 31°19' E 121°44'4 7.7
2017-Nov-24 07:30N 31°18' E 121°48'4 8.4
2017-Nov-24 07:00N 31°16' E 121°52'5 9.2
2017-Nov-24 06:30N 31°15' E 121°58'510.6
2017-Nov-24 06:00N 31°14' E 122°04'5 9.3
2017-Nov-24 05:30N 31°12' E 122°09'4 9.0
2017-Nov-24 05:00N 31°09' E 122°13'510.7
2017-Nov-24 04:30N 31°06' E 122°18'510.1
2017-Nov-24 04:00N 31°07' E 122°24'5 9.5
2017-Nov-24 03:30N 31°08' E 122°29'4 7.9
2017-Nov-24 02:59N 31°07' E 122°34'6 0.7
2017-Nov-23 17:33N 31°09' E 122°41'0 0.2
2017-Nov-23 17:26N 31°09' E 122°41'  
Track history (hours):
 
Tides and Currents Weather Stations Pressure Air Temp Water Temp Dewpoint Dewpoint Depression Visibility Wind Speed Wind Dir Waves Ship Positions

Dubai Fortune

Last reported at 2017-Dec-01 03:05 UTC. Time now 2017-Dec-12 23:53 UTC.
Position N 30°29' E 121°59'.
Warning: this ship's position is 11 days out of date.

Length 188 m; draft 5.8 m.

Type: Cargo ship. MMSI: 353316000.

Date/timePositionNaut miles runAvg speedWind from/ knotsBaromVisibWave heightAir tempDewpointWater temp
2017-Dec-01 03:05N 30°29' E 121°59'612.5
2017-Dec-01 02:36N 30°32' E 122°05'212.3
2017-Dec-01 02:26N 30°33' E 122°08'711.8
2017-Dec-01 01:49N 30°38' E 122°13'412.6
2017-Dec-01 01:30N 30°42' E 122°14'612.4
2017-Dec-01 01:00N 30°48' E 122°17'611.6
2017-Dec-01 00:30N 30°54' E 122°16'611.7
2017-Dec-01 00:00N 30°59' E 122°13'510.2
2017-Nov-30 23:30N 31°03' E 122°09'5 9.2
2017-Nov-30 23:00N 31°04' E 122°04'4 7.3
2017-Nov-30 22:30N 31°05' E 122°00'3 6.7
2017-Nov-30 22:00N 31°07' E 121°57'611.4
2017-Nov-30 21:29N 31°10' E 121°51'714.6
2017-Nov-30 20:59N 31°16' E 121°45'712.5
2017-Nov-30 20:25N 31°21' E 121°39'512.0
2017-Nov-30 20:00N 31°23' E 121°35'5 9.8
2017-Nov-30 19:30N 31°26' E 121°30'4 7.5
2017-Nov-30 19:00N 31°29' E 121°27'611.4
2017-Nov-30 18:30N 31°32' E 121°21'612.4
2017-Nov-30 18:00N 31°37' E 121°16'713.4
2017-Nov-30 17:30N 31°41' E 121°10'611.0
2017-Nov-30 17:00N 31°45' E 121°05'612.2
2017-Nov-30 16:30N 31°47' E 120°59'510.5
2017-Nov-30 16:00N 31°50' E 120°54'19 9.8
2017-Nov-30 14:04N 32°00' E 120°35'113.6
2017-Nov-30 13:59N 32°01' E 120°34'613.3
2017-Nov-30 13:31N 32°02' E 120°26'  
2017-Nov-25 04:54N 32°01' E 120°24'5 8.4
2017-Nov-25 04:18N 32°02' E 120°30'3 9.3
2017-Nov-25 04:00N 32°01' E 120°33'19 7.7
2017-Nov-25 01:33N 31°54' E 120°53'1 9.5
2017-Nov-25 01:29N 31°53' E 120°53'5 9.6
2017-Nov-25 01:00N 31°49' E 120°55'4 8.5
2017-Nov-25 00:30N 31°47' E 120°60'4 8.1
2017-Nov-25 00:00N 31°46' E 121°04'4 8.7
2017-Nov-24 23:30N 31°43' E 121°08'4 8.9
2017-Nov-24 23:00N 31°40' E 121°12'5 9.2
2017-Nov-24 22:30N 31°37' E 121°16'3 6.7
2017-Nov-24 22:00N 31°35' E 121°20'0 0.2
2017-Nov-24 21:30N 31°35' E 121°20'0 0.0
2017-Nov-24 21:00N 31°35' E 121°20'0 0.0
2017-Nov-24 20:30N 31°35' E 121°20'0 0.0
2017-Nov-24 20:00N 31°35' E 121°20'0 0.0
2017-Nov-24 19:27N 31°35' E 121°20'0 0.0
2017-Nov-24 19:00N 31°35' E 121°20'0 0.3
2017-Nov-24 18:24N 31°35' E 121°20'0 0.3
2017-Nov-24 18:00N 31°35' E 121°20'0 0.1
2017-Nov-24 17:30N 31°35' E 121°20'0 0.0
2017-Nov-24 17:00N 31°35' E 121°20'0 0.0
2017-Nov-24 16:30N 31°35' E 121°20'0 0.0
2017-Nov-24 16:00N 31°35' E 121°20'0 0.0
2017-Nov-24 15:27N 31°35' E 121°20'0 0.0
2017-Nov-24 15:00N 31°35' E 121°20'0 0.0
2017-Nov-24 14:30N 31°35' E 121°20'0 0.0
2017-Nov-24 14:00N 31°35' E 121°20'0 0.0
2017-Nov-24 13:27N 31°35' E 121°20'0 0.0
2017-Nov-24 12:54N 31°35' E 121°20'0 0.0
2017-Nov-24 12:27N 31°35' E 121°20'0 0.0
2017-Nov-24 12:00N 31°35' E 121°20'0 0.1
2017-Nov-24 11:30N 31°35' E 121°20'1 2.4
2017-Nov-24 11:00N 31°34' E 121°19'4 8.4
2017-Nov-24 10:30N 31°31' E 121°23'4 8.9
2017-Nov-24 10:00N 31°28' E 121°27'4 8.4
2017-Nov-24 09:30N 31°25' E 121°31'4 8.5
2017-Nov-24 09:00N 31°23' E 121°35'4 8.2
2017-Nov-24 08:30N 31°21' E 121°39'5 9.1
2017-Nov-24 08:00N 31°19' E 121°44'4 7.7
2017-Nov-24 07:30N 31°18' E 121°48'4 8.4
2017-Nov-24 07:00N 31°16' E 121°52'5 9.2
2017-Nov-24 06:30N 31°15' E 121°58'510.6
2017-Nov-24 06:00N 31°14' E 122°04'5 9.3
2017-Nov-24 05:30N 31°12' E 122°09'4 9.0
2017-Nov-24 05:00N 31°09' E 122°13'510.7
2017-Nov-24 04:30N 31°06' E 122°18'510.1
2017-Nov-24 04:00N 31°07' E 122°24'5 9.5
2017-Nov-24 03:30N 31°08' E 122°29'4 7.9
2017-Nov-24 02:59N 31°07' E 122°34'6 0.7
2017-Nov-23 17:33N 31°09' E 122°41'0 0.2
2017-Nov-23 17:26N 31°09' E 122°41'  

Dump ship's entire track history